Time;durP1;ratioP1;P1;durP2;ratioP2;P2;SDS_P1;SDS_P2;PMS_P1;PMS_P2;Temp;Humidity;BMP_temperature;BMP_pressure;BME280_temperature;BME280_humidity;BME280_pressure;Samples;Min_cycle;Max_cycle;Signal;HPM_P1;HPM_P2
2023/08/30 00:00:14;;;;;;;1.50;1.20;;;22.40;88.90;;;;;;5038160;28;20335;-82
2023/08/30 00:02:39;;;;;;;1.30;1.17;;;22.30;89.00;;;;;;5027955;28;20178;-82
2023/08/30 00:05:06;;;;;;;2.30;1.17;;;22.30;89.20;;;;;;5030925;28;20224;-82
2023/08/30 00:07:34;;;;;;;1.20;1.10;;;22.40;89.20;;;;;;5031035;28;20177;-82
2023/08/30 00:10:03;;;;;;;1.60;1.07;;;22.30;89.10;;;;;;5017756;28;20205;-82
2023/08/30 00:12:29;;;;;;;1.30;1.03;;;22.40;89.10;;;;;;5022477;28;20171;-82
2023/08/30 00:14:56;;;;;;;1.43;1.00;;;22.30;89.80;;;;;;4999108;28;20174;-82
2023/08/30 00:17:22;;;;;;;1.20;1.10;;;22.30;89.20;;;;;;5002700;28;20169;-82
2023/08/30 00:19:52;;;;;;;1.17;1.07;;;22.40;89.20;;;;;;5038057;28;20169;-82
2023/08/30 00:22:23;;;;;;;1.30;1.20;;;22.40;89.20;;;;;;5038426;28;20235;-82
2023/08/30 00:24:49;;;;;;;1.27;1.17;;;22.30;89.20;;;;;;5037790;28;20285;-82
2023/08/30 00:27:17;;;;;;;1.97;1.20;;;22.40;89.20;;;;;;5038780;28;20551;-82
2023/08/30 00:29:46;;;;;;;2.20;1.30;;;22.30;89.10;;;;;;5023863;28;20184;-82
2023/08/30 00:32:15;;;;;;;1.37;1.27;;;22.30;89.20;;;;;;5017726;28;20176;-82
2023/08/30 00:34:44;;;;;;;1.43;1.20;;;22.30;89.10;;;;;;5034787;28;20235;-82
2023/08/30 00:37:12;;;;;;;1.53;1.30;;;22.30;89.30;;;;;;5017264;28;20196;-82
2023/08/30 00:39:39;;;;;;;1.30;1.20;;;22.30;89.20;;;;;;5033646;28;20778;-82
2023/08/30 00:42:07;;;;;;;1.40;1.20;;;22.30;89.20;;;;;;5037855;28;20179;-82
2023/08/30 00:44:36;;;;;;;1.27;1.17;;;22.30;89.20;;;;;;5023441;28;20585;-82
2023/08/30 00:47:03;;;;;;;1.43;1.10;;;22.30;89.20;;;;;;5018179;28;20181;-83
2023/08/30 00:49:30;;;;;;;1.47;1.00;;;22.30;89.20;;;;;;5028128;28;20172;-82
2023/08/30 00:55:18;;;;;;;1.83;1.20;;;22.30;89.40;;;;;;5048814;28;20276;-81
2023/08/30 00:57:46;;;;;;;1.87;1.40;;;22.30;89.30;;;;;;5035079;28;20187;-81
2023/08/30 01:01:08;;;;;;;1.87;1.30;;;22.30;89.30;;;;;;5063791;28;20183;-81
2023/08/30 01:03:39;;;;;;;1.40;1.20;;;22.30;89.20;;;;;;4971268;28;20195;-81
2023/08/30 01:06:13;;;;;;;1.80;1.23;;;22.30;89.20;;;;;;4971861;28;20199;-81
2023/08/30 01:08:58;;;;;;;1.33;1.23;;;22.30;89.10;;;;;;4955467;28;20190;-81
2023/08/30 01:11:53;;;;;;;1.30;1.20;;;22.30;89.10;;;;;;4971748;28;20262;-81
2023/08/30 01:14:37;;;;;;;1.30;1.20;;;22.30;89.10;;;;;;4971785;28;20543;-81
2023/08/30 01:17:25;;;;;;;2.27;1.30;;;22.30;89.20;;;;;;4956964;28;20492;-81
2023/08/30 01:20:18;;;;;;;1.23;1.10;;;22.30;89.20;;;;;;4972199;28;20363;-81
2023/08/30 01:23:21;;;;;;;2.53;1.40;;;22.30;89.10;;;;;;4956490;28;20187;-81
2023/08/30 01:26:30;;;;;;;1.40;1.30;;;22.30;89.20;;;;;;4973017;28;20686;-81
2023/08/30 01:29:00;;;;;;;2.07;1.57;;;22.30;88.90;;;;;;4972426;28;20580;-81
2023/08/30 01:31:48;;;;;;;1.30;1.20;;;22.30;88.90;;;;;;4956013;28;20202;-81
2023/08/30 01:34:19;;;;;;;1.40;1.30;;;22.30;89.10;;;;;;4971328;28;20280;-80
2023/08/30 01:36:58;;;;;;;1.27;1.17;;;22.30;89.10;;;;;;5027097;28;20176;-81
2023/08/30 01:39:31;;;;;;;1.87;1.17;;;22.30;89.00;;;;;;5028084;28;20177;-81
2023/08/30 01:42:22;;;;;;;1.30;1.20;;;22.30;88.80;;;;;;5027757;28;20295;-81
2023/08/30 01:44:50;;;;;;;2.03;1.37;;;22.30;88.90;;;;;;5042437;28;20610;-81
2023/08/30 01:47:17;;;;;;;2.20;1.40;;;22.30;89.10;;;;;;5017205;28;20181;-81
2023/08/30 01:50:03;;;;;;;2.20;1.33;;;22.30;89.10;;;;;;5028679;28;20187;-81
2023/08/30 01:52:32;;;;;;;2.13;1.50;;;22.20;89.20;;;;;;5030316;28;20263;-81
2023/08/30 01:55:05;;;;;;;1.67;1.30;;;22.20;89.20;;;;;;5009414;28;20638;-81
2023/08/30 01:57:31;;;;;;;2.53;1.43;;;22.20;89.20;;;;;;5032002;28;20229;-81
2023/08/30 01:59:57;;;;;;;1.40;1.30;;;22.20;89.10;;;;;;5032734;28;20175;-81
2023/08/30 02:02:45;;;;;;;1.10;1.00;;;22.20;89.30;;;;;;5047676;28;20187;-81
2023/08/30 02:08:22;;;;;;;1.60;1.20;;;22.20;89.10;;;;;;5011046;28;20490;-81
2023/08/30 02:10:56;;;;;;;1.73;1.50;;;22.10;88.90;;;;;;5031439;28;20268;-81
2023/08/30 02:13:26;;;;;;;2.50;1.30;;;22.20;89.00;;;;;;5033009;28;20168;-81
2023/08/30 02:15:58;;;;;;;1.67;1.40;;;22.10;89.10;;;;;;5032842;28;20279;-81
2023/08/30 02:18:25;;;;;;;1.30;1.20;;;22.10;89.10;;;;;;5015489;28;20630;-81
2023/08/30 02:20:51;;;;;;;2.57;1.40;;;22.10;89.20;;;;;;5032617;28;20191;-81
2023/08/30 02:23:16;;;;;;;1.77;1.50;;;22.10;89.00;;;;;;5032555;28;20259;-81
2023/08/30 02:25:42;;;;;;;2.40;1.40;;;22.10;89.00;;;;;;5022549;28;20225;-80
2023/08/30 02:28:07;;;;;;;2.13;1.27;;;22.00;89.00;;;;;;5032588;28;20176;-81
2023/08/30 02:30:33;;;;;;;1.43;1.33;;;22.00;89.20;;;;;;5033425;28;20271;-81
2023/08/30 02:32:59;;;;;;;1.50;1.40;;;22.00;89.00;;;;;;5015675;28;20188;-81
2023/08/30 02:35:25;;;;;;;1.73;1.43;;;22.00;89.00;;;;;;5048710;28;20172;-81
2023/08/30 02:37:50;;;;;;;1.63;1.43;;;22.00;89.00;;;;;;5047116;28;20180;-81
2023/08/30 02:40:16;;;;;;;2.03;1.20;;;22.00;89.10;;;;;;5015223;28;20184;-82
2023/08/30 02:42:41;;;;;;;1.80;1.50;;;22.00;89.00;;;;;;5035012;28;20176;-81
2023/08/30 02:45:08;;;;;;;1.50;1.40;;;22.00;89.10;;;;;;5018933;28;20299;-81
2023/08/30 02:47:34;;;;;;;1.47;1.30;;;22.00;89.00;;;;;;5035793;28;20187;-81
2023/08/30 02:49:59;;;;;;;2.03;1.50;;;22.00;89.00;;;;;;5035795;28;20196;-81
2023/08/30 02:52:25;;;;;;;1.30;1.20;;;21.90;89.00;;;;;;5036033;28;20165;-81
2023/08/30 02:54:51;;;;;;;2.00;1.47;;;21.90;88.90;;;;;;5036700;28;20206;-81
2023/08/30 02:57:17;;;;;;;1.47;1.30;;;21.90;89.00;;;;;;5019447;28;20211;-81
2023/08/30 02:59:42;;;;;;;1.40;1.30;;;21.90;89.30;;;;;;5019353;28;20242;-81
2023/08/30 03:02:08;;;;;;;1.40;1.30;;;21.90;89.20;;;;;;5018768;28;20558;-81
2023/08/30 03:04:34;;;;;;;1.70;1.40;;;21.80;89.30;;;;;;5019181;28;20212;-81
2023/08/30 03:07:00;;;;;;;1.40;1.30;;;21.90;89.30;;;;;;5036886;28;20172;-81
2023/08/30 03:09:25;;;;;;;1.70;1.30;;;21.80;89.30;;;;;;5019518;28;20495;-82
2023/08/30 03:11:51;;;;;;;2.87;1.37;;;21.80;89.40;;;;;;5051623;28;20182;-81
2023/08/30 03:14:17;;;;;;;1.50;1.33;;;21.80;89.10;;;;;;5019309;28;20187;-81
2023/08/30 03:16:45;;;;;;;1.47;1.37;;;21.80;89.20;;;;;;5034743;28;20188;-81
2023/08/30 03:19:10;;;;;;;1.37;1.27;;;21.80;89.20;;;;;;5017496;28;20196;-81
2023/08/30 03:21:36;;;;;;;1.60;1.40;;;21.80;89.10;;;;;;5016157;28;20192;-81
2023/08/30 03:24:02;;;;;;;1.77;1.50;;;21.80;89.30;;;;;;5048909;28;20212;-81
2023/08/30 03:26:28;;;;;;;1.30;1.17;;;21.80;89.30;;;;;;5032966;28;20526;-81
2023/08/30 03:28:53;;;;;;;1.57;1.20;;;21.80;89.40;;;;;;5016046;28;20176;-81
2023/08/30 03:31:20;;;;;;;1.40;1.30;;;21.80;89.30;;;;;;5017962;28;20173;-81
2023/08/30 03:33:47;;;;;;;2.00;1.47;;;21.80;89.30;;;;;;5035584;28;20226;-81
2023/08/30 03:36:15;;;;;;;2.03;1.37;;;21.80;89.10;;;;;;5034172;28;20183;-81
2023/08/30 03:38:40;;;;;;;1.87;1.57;;;21.80;89.00;;;;;;5032695;28;20223;-81
2023/08/30 03:41:07;;;;;;;2.07;1.50;;;21.80;89.10;;;;;;5017347;28;20183;-81
2023/08/30 03:43:33;;;;;;;1.43;1.30;;;21.80;89.10;;;;;;5017989;28;20319;-82
2023/08/30 03:46:05;;;;;;;1.50;1.40;;;21.70;89.10;;;;;;5033335;28;20574;-82
2023/08/30 03:48:31;;;;;;;1.53;1.37;;;21.70;89.20;;;;;;5016781;28;20205;-81
2023/08/30 03:50:57;;;;;;;1.70;1.17;;;21.70;89.10;;;;;;5033798;28;20184;-81
2023/08/30 03:53:24;;;;;;;1.50;1.40;;;21.70;89.20;;;;;;5033725;28;20433;-81
2023/08/30 03:55:50;;;;;;;4.40;1.30;;;21.70;89.30;;;;;;5031577;28;20208;-81
2023/08/30 03:58:17;;;;;;;1.33;1.10;;;21.70;89.40;;;;;;5033922;28;20207;-81
2023/08/30 04:00:46;;;;;;;1.40;1.30;;;21.70;89.30;;;;;;5034028;28;20616;-81
2023/08/30 04:03:15;;;;;;;2.17;1.20;;;21.70;90.00;;;;;;5050850;28;20208;-81
2023/08/30 04:05:41;;;;;;;3.27;1.33;;;21.70;89.30;;;;;;5034374;28;20208;-81
2023/08/30 04:08:07;;;;;;;2.23;1.50;;;21.70;89.20;;;;;;5033660;28;20253;-81
2023/08/30 04:10:37;;;;;;;1.87;1.53;;;21.60;89.30;;;;;;5034755;28;20603;-81
2023/08/30 04:13:04;;;;;;;3.73;1.30;;;21.60;89.30;;;;;;5034348;28;20207;-81
2023/08/30 04:15:36;;;;;;;1.73;1.23;;;21.70;89.20;;;;;;5016782;28;20582;-82
2023/08/30 04:18:03;;;;;;;1.93;1.50;;;21.60;89.10;;;;;;5031849;28;20262;-81
2023/08/30 04:20:29;;;;;;;3.80;1.60;;;21.60;89.20;;;;;;5032563;28;20184;-81
2023/08/30 04:22:56;;;;;;;1.40;1.27;;;21.60;88.90;;;;;;5031649;28;20176;-81
2023/08/30 04:25:22;;;;;;;1.77;1.40;;;21.60;89.10;;;;;;5013983;28;20208;-81
2023/08/30 04:27:48;;;;;;;1.40;1.30;;;21.60;89.10;;;;;;5031411;28;20182;-82
2023/08/30 04:30:15;;;;;;;1.60;1.30;;;21.60;89.00;;;;;;5015655;28;20180;-82
2023/08/30 04:32:41;;;;;;;1.70;1.30;;;21.60;89.10;;;;;;5030339;28;20179;-81
2023/08/30 04:35:07;;;;;;;1.57;1.47;;;21.50;89.10;;;;;;5013907;28;20181;-81
2023/08/30 04:37:32;;;;;;;1.63;1.20;;;21.50;89.10;;;;;;5048022;28;20554;-81
2023/08/30 04:39:58;;;;;;;1.87;1.40;;;21.60;89.10;;;;;;5030243;28;20169;-81
2023/08/30 04:42:24;;;;;;;1.70;1.60;;;21.60;89.00;;;;;;5016081;28;20239;-81
2023/08/30 04:44:51;;;;;;;2.57;1.30;;;21.50;88.90;;;;;;5011971;28;20212;-81
2023/08/30 04:47:17;;;;;;;1.40;1.30;;;21.50;89.00;;;;;;5030119;28;20624;-81
2023/08/30 04:49:43;;;;;;;2.23;1.50;;;21.50;89.00;;;;;;5012076;28;20205;-81
2023/08/30 04:52:08;;;;;;;1.40;1.30;;;21.50;88.90;;;;;;5028101;28;20197;-81
2023/08/30 04:54:34;;;;;;;1.97;1.40;;;21.50;88.90;;;;;;5043956;28;20551;-81
2023/08/30 04:57:00;;;;;;;1.50;1.30;;;21.50;89.60;;;;;;5010646;28;20189;-81
2023/08/30 04:59:25;;;;;;;3.43;1.50;;;21.50;89.10;;;;;;5043245;28;20274;-81
2023/08/30 05:01:51;;;;;;;2.40;1.23;;;21.50;89.00;;;;;;5055964;28;20213;-81
2023/08/30 05:04:17;;;;;;;1.60;1.30;;;21.50;89.10;;;;;;5030958;28;20212;-81
2023/08/30 05:06:43;;;;;;;1.40;1.30;;;21.50;89.20;;;;;;5030360;28;20176;-81
2023/08/30 05:09:09;;;;;;;1.97;1.33;;;21.50;89.10;;;;;;5030234;28;20164;-81
2023/08/30 05:11:36;;;;;;;1.67;1.30;;;21.50;89.00;;;;;;5047919;28;20300;-81
2023/08/30 05:14:02;;;;;;;1.30;1.20;;;21.50;88.90;;;;;;5029713;28;20234;-81
2023/08/30 05:16:28;;;;;;;1.30;1.20;;;21.50;89.10;;;;;;5028957;28;20585;-81
2023/08/30 05:18:53;;;;;;;1.50;1.40;;;21.50;89.20;;;;;;5028400;28;20176;-81
2023/08/30 05:21:19;;;;;;;1.60;1.40;;;21.50;89.20;;;;;;5028331;28;20426;-81
2023/08/30 05:23:46;;;;;;;2.03;1.40;;;21.50;89.20;;;;;;5044050;28;20179;-81
2023/08/30 05:26:16;;;;;;;1.40;1.30;;;21.50;89.30;;;;;;5046027;28;20169;-81
2023/08/30 05:28:43;;;;;;;1.60;1.33;;;21.50;89.30;;;;;;5030446;28;20176;-81
2023/08/30 05:31:08;;;;;;;1.40;1.30;;;21.50;89.10;;;;;;5026903;28;20267;-81
2023/08/30 05:33:34;;;;;;;1.60;1.50;;;21.50;89.10;;;;;;5046834;28;20171;-81
2023/08/30 05:36:00;;;;;;;1.50;1.40;;;21.50;89.10;;;;;;5028202;28;20164;-81
2023/08/30 05:38:25;;;;;;;1.70;1.50;;;21.60;89.20;;;;;;5046344;28;20164;-82
2023/08/30 05:40:51;;;;;;;1.90;1.40;;;21.60;88.90;;;;;;5044833;28;20180;-81
2023/08/30 05:43:18;;;;;;;1.77;1.57;;;21.60;89.10;;;;;;5046245;28;20191;-81
2023/08/30 05:45:51;;;;;;;5.10;1.77;;;21.60;89.00;;;;;;5032176;28;20257;-81
2023/08/30 05:48:16;;;;;;;3.53;1.90;;;21.50;88.80;;;;;;5029127;28;20286;-81
2023/08/30 05:50:42;;;;;;;1.90;1.70;;;21.50;88.90;;;;;;5044483;28;20560;-81
2023/08/30 05:53:09;;;;;;;2.77;2.00;;;21.60;88.80;;;;;;5046366;28;20202;-81
2023/08/30 05:55:34;;;;;;;2.20;1.80;;;21.50;88.80;;;;;;5028038;28;20383;-81
2023/08/30 05:58:00;;;;;;;2.67;2.10;;;21.60;88.60;;;;;;5026041;28;20168;-81
2023/08/30 06:00:26;;;;;;;3.07;1.90;;;21.60;88.60;;;;;;5043339;28;20172;-81
2023/08/30 06:02:52;;;;;;;2.30;2.10;;;21.60;88.60;;;;;;5042183;28;20418;-81
2023/08/30 06:05:18;;;;;;;2.40;2.20;;;21.60;88.50;;;;;;5025900;28;20200;-81
2023/08/30 06:07:44;;;;;;;3.50;2.40;;;21.60;88.20;;;;;;5027260;28;20435;-81
2023/08/30 06:10:10;;;;;;;4.33;2.27;;;21.60;88.10;;;;;;5026234;28;20167;-81
2023/08/30 06:12:35;;;;;;;3.30;2.40;;;21.60;88.00;;;;;;5028074;28;20206;-81
2023/08/30 06:15:01;;;;;;;3.17;2.57;;;21.60;88.00;;;;;;5046444;28;20175;-81
2023/08/30 06:17:27;;;;;;;3.07;2.37;;;21.60;87.90;;;;;;5050386;28;20785;-81
2023/08/30 06:19:52;;;;;;;3.03;2.47;;;21.60;87.80;;;;;;5032243;28;20258;-81
2023/08/30 06:22:18;;;;;;;4.17;2.57;;;21.70;87.50;;;;;;5050755;28;20191;-81
2023/08/30 06:24:45;;;;;;;4.53;2.33;;;21.60;87.80;;;;;;5048774;28;20225;-81
2023/08/30 06:27:10;;;;;;;4.23;2.60;;;21.50;88.20;;;;;;5031376;28;20687;-81
2023/08/30 06:29:36;;;;;;;5.77;3.00;;;21.50;88.60;;;;;;5031638;28;20548;-81
2023/08/30 06:32:02;;;;;;;4.17;2.80;;;21.40;88.80;;;;;;5031505;28;20330;-81
2023/08/30 06:34:28;;;;;;;4.57;2.20;;;21.40;89.10;;;;;;5030974;28;20384;-81
2023/08/30 06:36:54;;;;;;;3.60;2.57;;;21.40;89.20;;;;;;5031331;28;20185;-81
2023/08/30 06:39:20;;;;;;;7.60;2.80;;;21.30;89.10;;;;;;5046497;28;20337;-81
2023/08/30 06:41:46;;;;;;;4.40;2.67;;;21.40;89.40;;;;;;5046017;28;20266;-81
2023/08/30 06:44:11;;;;;;;5.47;2.83;;;21.40;89.20;;;;;;5029039;28;20584;-81
2023/08/30 06:46:37;;;;;;;3.10;2.57;;;21.40;89.30;;;;;;5030913;28;20172;-81
2023/08/30 06:49:12;;;;;;;3.80;2.60;;;21.40;89.30;;;;;;5030196;28;20349;-81
2023/08/30 06:51:38;;;;;;;6.90;2.63;;;21.40;89.20;;;;;;5032290;28;20167;-81
2023/08/30 06:54:03;;;;;;;3.27;2.33;;;21.40;89.20;;;;;;5030889;28;20381;-81
2023/08/30 06:56:30;;;;;;;3.37;2.80;;;21.50;89.30;;;;;;5033313;28;20218;-81
2023/08/30 06:58:56;;;;;;;4.07;2.80;;;21.50;89.20;;;;;;5052044;28;20199;-81
2023/08/30 07:01:23;;;;;;;3.13;2.50;;;21.50;88.90;;;;;;5033257;28;20440;-81
2023/08/30 07:03:49;;;;;;;3.97;2.57;;;21.60;88.90;;;;;;5030589;28;20176;-81
2023/08/30 07:06:20;;;;;;;4.23;2.80;;;21.70;88.60;;;;;;5033206;28;20502;-80
2023/08/30 07:08:52;;;;;;;3.23;2.63;;;21.70;88.30;;;;;;5049047;28;20180;-80
2023/08/30 07:11:18;;;;;;;6.47;3.00;;;21.80;87.90;;;;;;5031069;28;20249;-81
2023/08/30 07:13:47;;;;;;;4.20;2.80;;;21.90;87.50;;;;;;5033199;28;20179;-80
2023/08/30 07:16:13;;;;;;;4.93;2.73;;;21.90;87.00;;;;;;5032722;28;20222;-81
2023/08/30 07:18:39;;;;;;;2.90;2.60;;;22.00;86.70;;;;;;5032376;28;20168;-81
2023/08/30 07:21:05;;;;;;;5.67;3.00;;;22.10;86.40;;;;;;5049083;28;20163;-81
2023/08/30 07:23:31;;;;;;;3.83;3.00;;;22.10;86.10;;;;;;5046740;28;20198;-81
2023/08/30 07:25:56;;;;;;;3.97;2.63;;;22.20;86.00;;;;;;5047496;28;20208;-81
2023/08/30 07:28:22;;;;;;;3.50;2.80;;;22.20;85.60;;;;;;5049824;28;20455;-81
2023/08/30 07:30:48;;;;;;;5.07;2.93;;;22.30;85.30;;;;;;5030318;28;20241;-81
2023/08/30 07:33:14;;;;;;;3.60;2.67;;;22.40;84.60;;;;;;5030803;28;20176;-81
2023/08/30 07:35:40;;;;;;;3.70;2.80;;;22.40;84.00;;;;;;5046557;28;20579;-81
2023/08/30 07:38:06;;;;;;;2.83;2.63;;;22.50;83.90;;;;;;5027510;28;20168;-81
2023/08/30 07:40:31;;;;;;;4.03;2.97;;;22.60;83.10;;;;;;5031764;28;20282;-81
2023/08/30 07:42:57;;;;;;;3.50;2.97;;;22.80;82.30;;;;;;5031081;28;20237;-81
2023/08/30 07:45:22;;;;;;;3.73;2.70;;;22.90;81.20;;;;;;5033406;28;20481;-81
2023/08/30 07:47:48;;;;;;;3.70;2.80;;;23.10;80.00;;;;;;5031656;28;20169;-81
2023/08/30 07:50:14;;;;;;;2.83;2.50;;;23.30;78.80;;;;;;5049542;28;20470;-81
2023/08/30 07:52:46;;;;;;;3.50;2.80;;;23.40;78.50;;;;;;5033489;28;20199;-81
2023/08/30 07:55:11;;;;;;;3.10;2.77;;;23.60;77.20;;;;;;5030206;28;20462;-81
2023/08/30 07:57:37;;;;;;;2.90;2.60;;;23.70;76.60;;;;;;5031784;28;20234;-81
2023/08/30 08:00:10;;;;;;;2.83;2.53;;;23.80;76.20;;;;;;5046992;28;20238;-81
2023/08/30 08:02:36;;;;;;;3.70;2.30;;;23.90;75.10;;;;;;5047609;28;20329;-81
2023/08/30 08:05:02;;;;;;;3.10;2.80;;;24.00;74.70;;;;;;5048026;28;20204;-81
2023/08/30 08:07:27;;;;;;;2.80;2.50;;;24.10;74.10;;;;;;5029236;28;20203;-81
2023/08/30 08:09:54;;;;;;;3.73;2.53;;;24.20;73.50;;;;;;5027996;28;20173;-81
2023/08/30 08:12:20;;;;;;;3.37;2.60;;;24.30;72.90;;;;;;5046398;28;20191;-81
2023/08/30 08:14:46;;;;;;;3.50;2.47;;;24.30;72.60;;;;;;5031141;28;20673;-81
2023/08/30 08:17:12;;;;;;;2.93;2.70;;;24.50;71.70;;;;;;5028834;28;20176;-81
2023/08/30 08:19:39;;;;;;;3.97;2.60;;;24.50;71.30;;;;;;5030619;28;20457;-81
2023/08/30 08:22:05;;;;;;;3.65;2.70;;;24.60;70.90;;;;;;5042867;28;20164;-81
2023/08/30 08:24:32;;;;;;;4.10;2.60;;;24.80;70.20;;;;;;5045726;28;20246;-81
2023/08/30 08:26:58;;;;;;;2.87;2.10;;;24.90;69.50;;;;;;5028598;28;20202;-81
2023/08/30 08:29:27;;;;;;;4.18;2.53;;;25.00;68.60;;;;;;5048873;28;20172;-81
2023/08/30 08:31:53;;;;;;;2.80;2.50;;;25.20;67.70;;;;;;5029856;28;20743;-82
2023/08/30 08:34:20;;;;;;;3.25;2.40;;;25.20;67.40;;;;;;5031030;28;20188;-81
2023/08/30 08:36:45;;;;;;;2.92;2.40;;;25.30;67.00;;;;;;5049661;28;20542;-80
2023/08/30 08:39:14;;;;;;;4.60;2.88;;;25.30;66.80;;;;;;5028040;28;20176;-81
2023/08/30 08:41:53;;;;;;;4.32;2.28;;;25.30;66.80;;;;;;5031099;28;20200;-81
2023/08/30 08:44:19;;;;;;;2.42;2.22;;;25.30;66.70;;;;;;5048762;28;20192;-81
2023/08/30 08:46:49;;;;;;;2.95;2.30;;;25.30;66.70;;;;;;5029809;28;20168;-81
2023/08/30 08:49:15;;;;;;;3.83;2.40;;;25.20;67.10;;;;;;5039013;28;20203;-82
2023/08/30 08:51:52;;;;;;;2.75;2.40;;;25.10;67.20;;;;;;5028648;28;20176;-81
2023/08/30 08:54:21;;;;;;;2.63;2.42;;;25.10;67.20;;;;;;5027920;28;20191;-82
2023/08/30 08:56:48;;;;;;;3.15;2.40;;;25.10;67.40;;;;;;5026977;28;20268;-81
2023/08/30 08:59:14;;;;;;;3.33;2.10;;;25.20;67.30;;;;;;5025091;28;20181;-81
2023/08/30 09:01:40;;;;;;;2.90;2.30;;;25.30;66.90;;;;;;5028173;28;20461;-81
2023/08/30 09:04:16;;;;;;;2.85;2.40;;;25.20;67.10;;;;;;5028457;28;20432;-81
2023/08/30 09:06:45;;;;;;;2.92;2.42;;;25.00;67.60;;;;;;5029152;28;20378;-81
2023/08/30 09:09:11;;;;;;;3.60;2.35;;;24.80;68.50;;;;;;5031505;28;20165;-81
2023/08/30 09:11:37;;;;;;;2.73;2.03;;;24.60;69.60;;;;;;5028035;28;20530;-81
2023/08/30 09:14:18;;;;;;;3.23;2.43;;;24.50;70.00;;;;;;5028794;28;20180;-81
2023/08/30 09:16:54;;;;;;;3.00;2.17;;;24.50;70.20;;;;;;5045914;28;20286;-81
2023/08/30 09:19:24;;;;;;;2.25;2.05;;;24.60;70.20;;;;;;5030092;28;20183;-81
2023/08/30 09:21:56;;;;;;;4.22;2.20;;;24.70;69.60;;;;;;5029705;28;20660;-81
2023/08/30 09:24:22;;;;;;;2.30;2.10;;;24.90;69.00;;;;;;5028814;28;20686;-81
2023/08/30 09:27:00;;;;;;;3.35;2.20;;;24.80;69.20;;;;;;5048457;28;20307;-81
2023/08/30 09:29:33;;;;;;;2.57;2.20;;;24.60;69.90;;;;;;5025236;28;20405;-81
2023/08/30 09:32:01;;;;;;;2.67;2.30;;;24.50;70.40;;;;;;5028323;28;20172;-81
2023/08/30 09:34:27;;;;;;;2.80;2.23;;;24.40;70.90;;;;;;5043449;28;20405;-81
2023/08/30 09:36:53;;;;;;;2.63;2.30;;;24.30;71.40;;;;;;5028495;28;20338;-81
2023/08/30 09:39:20;;;;;;;2.47;2.10;;;24.30;71.80;;;;;;5045013;28;20520;-81
2023/08/30 09:41:50;;;;;;;3.43;2.40;;;24.20;72.00;;;;;;5026387;28;20192;-81
2023/08/30 09:44:18;;;;;;;3.07;2.23;;;24.20;72.50;;;;;;5026899;28;20215;-81
2023/08/30 09:46:55;;;;;;;2.33;2.13;;;24.20;72.60;;;;;;5042139;28;20351;-81
2023/08/30 09:49:21;;;;;;;2.53;2.20;;;24.10;72.80;;;;;;5020223;28;20241;-81
2023/08/30 09:51:48;;;;;;;2.50;2.30;;;24.10;73.00;;;;;;5023041;28;20183;-80
2023/08/30 09:54:23;;;;;;;3.43;2.40;;;24.10;73.20;;;;;;5040426;28;20191;-81
2023/08/30 09:56:59;;;;;;;2.40;2.20;;;24.00;73.60;;;;;;5025470;28;20204;-81
2023/08/30 09:59:30;;;;;;;2.60;2.40;;;24.00;73.90;;;;;;5042555;28;20183;-80
2023/08/30 10:01:58;;;;;;;2.40;2.17;;;24.00;74.50;;;;;;5042441;28;20338;-81
2023/08/30 10:04:25;;;;;;;2.40;2.20;;;24.00;74.10;;;;;;5025600;28;20203;-81
2023/08/30 10:06:51;;;;;;;3.57;2.10;;;24.00;74.30;;;;;;5043007;28;20633;-81
2023/08/30 10:09:18;;;;;;;2.87;2.10;;;23.90;75.20;;;;;;5027299;28;20168;-81
2023/08/30 10:11:45;;;;;;;2.50;2.23;;;23.80;74.90;;;;;;5045065;28;20169;-81
2023/08/30 10:14:12;;;;;;;2.20;2.00;;;23.90;75.10;;;;;;5028709;28;20389;-80
2023/08/30 10:16:48;;;;;;;2.80;2.17;;;23.80;75.30;;;;;;5027278;28;20275;-81
2023/08/30 10:19:27;;;;;;;2.77;2.10;;;23.80;75.60;;;;;;5029949;28;20246;-81
2023/08/30 10:22:08;;;;;;;2.43;2.20;;;23.70;75.80;;;;;;5028320;28;20203;-81
2023/08/30 10:24:59;;;;;;;2.97;2.40;;;23.70;76.10;;;;;;5025349;28;20307;-81
2023/08/30 10:27:36;;;;;;;2.70;2.30;;;23.70;76.30;;;;;;5024443;28;20164;-81
2023/08/30 10:30:04;;;;;;;3.47;2.37;;;23.70;76.50;;;;;;5026397;28;20448;-81
2023/08/30 10:32:31;;;;;;;2.53;2.30;;;23.70;76.50;;;;;;5027035;28;20636;-81
2023/08/30 10:35:04;;;;;;;3.50;2.10;;;23.70;76.70;;;;;;5043995;28;20260;-81
2023/08/30 10:37:30;;;;;;;2.47;2.13;;;23.70;76.90;;;;;;5044432;28;20164;-81
2023/08/30 10:40:03;;;;;;;2.30;2.10;;;23.70;77.00;;;;;;5028158;28;20428;-81
2023/08/30 10:42:29;;;;;;;2.40;2.10;;;23.60;77.20;;;;;;5046298;28;20271;-81
2023/08/30 10:45:08;;;;;;;2.13;1.93;;;23.60;77.50;;;;;;5029234;28;20247;-81
2023/08/30 10:47:38;;;;;;;3.33;2.00;;;23.60;77.60;;;;;;5026961;28;20172;-81
2023/08/30 10:50:16;;;;;;;2.43;2.20;;;23.60;77.90;;;;;;5028877;28;20180;-81
2023/08/30 10:52:42;;;;;;;2.53;2.27;;;23.50;77.90;;;;;;5046251;28;20187;-81
2023/08/30 10:55:26;;;;;;;3.33;2.50;;;23.60;78.20;;;;;;5025238;28;20192;-81
2023/08/30 10:58:03;;;;;;;2.40;2.10;;;23.50;78.40;;;;;;5027968;28;20176;-81
2023/08/30 11:00:30;;;;;;;2.30;2.10;;;23.50;78.50;;;;;;5026571;28;20183;-81
2023/08/30 11:03:10;;;;;;;3.30;2.20;;;23.50;78.60;;;;;;5030999;28;20465;-81
2023/08/30 11:05:36;;;;;;;2.80;2.30;;;23.50;78.70;;;;;;5047351;28;20430;-81
2023/08/30 11:08:12;;;;;;;2.43;2.20;;;23.50;79.10;;;;;;5047613;28;20626;-81
2023/08/30 11:10:39;;;;;;;2.43;2.20;;;23.50;79.00;;;;;;5029921;28;20161;-81
2023/08/30 11:13:06;;;;;;;2.40;2.20;;;23.50;79.20;;;;;;5030286;28;20553;-81
2023/08/30 11:15:31;;;;;;;2.40;2.20;;;23.50;79.40;;;;;;5047311;28;20259;-81
2023/08/30 11:18:04;;;;;;;3.03;2.17;;;23.40;79.60;;;;;;5047981;28;20164;-81
2023/08/30 11:20:29;;;;;;;2.40;2.20;;;23.40;80.20;;;;;;5046393;28;20501;-81
2023/08/30 11:22:55;;;;;;;2.63;2.13;;;23.40;80.40;;;;;;5045730;28;20238;-81
2023/08/30 11:25:21;;;;;;;2.40;2.20;;;23.40;80.60;;;;;;5028519;28;20328;-81
2023/08/30 11:27:47;;;;;;;2.87;2.30;;;23.30;80.60;;;;;;5028289;28;20233;-81
2023/08/30 11:30:13;;;;;;;2.83;2.50;;;23.30;80.90;;;;;;5027677;28;20205;-80
2023/08/30 11:32:44;;;;;;;3.50;2.20;;;23.30;81.10;;;;;;5028132;28;20446;-81
2023/08/30 11:35:10;;;;;;;2.70;2.10;;;23.30;81.10;;;;;;5029193;28;20271;-81
2023/08/30 11:37:36;;;;;;;2.77;2.00;;;23.30;81.20;;;;;;5045062;28;20263;-81
2023/08/30 11:40:03;;;;;;;2.60;2.10;;;23.30;81.30;;;;;;5046552;28;20210;-80
2023/08/30 11:42:30;;;;;;;3.00;2.30;;;23.30;81.30;;;;;;5032191;28;20175;-80
2023/08/30 11:44:58;;;;;;;2.40;2.20;;;23.30;81.30;;;;;;5046235;28;20485;-80
2023/08/30 11:47:25;;;;;;;2.53;2.00;;;23.30;81.20;;;;;;5027986;28;20169;-80
2023/08/30 11:49:53;;;;;;;2.33;2.13;;;23.30;81.40;;;;;;5026497;28;20165;-80
2023/08/30 11:52:23;;;;;;;2.97;2.30;;;23.20;81.40;;;;;;5027788;28;20180;-81
2023/08/30 11:54:49;;;;;;;2.27;2.07;;;23.30;81.70;;;;;;5028616;28;20200;-81
2023/08/30 11:57:15;;;;;;;2.43;1.97;;;23.20;81.70;;;;;;5027806;28;20169;-81
2023/08/30 11:59:41;;;;;;;3.00;2.43;;;23.20;81.80;;;;;;5052538;28;20187;-79
2023/08/30 12:02:08;;;;;;;2.20;2.00;;;23.20;81.90;;;;;;5047392;28;20443;-81
2023/08/30 12:04:45;;;;;;;2.87;2.00;;;23.20;82.10;;;;;;5028675;28;20589;-81
2023/08/30 12:07:24;;;;;;;2.97;2.17;;;23.20;82.40;;;;;;5032101;28;20300;-80
2023/08/30 12:09:50;;;;;;;3.23;2.00;;;23.10;82.50;;;;;;5030601;28;20175;-81
2023/08/30 12:12:16;;;;;;;2.40;2.20;;;23.10;82.80;;;;;;5029452;28;20169;-81
2023/08/30 12:14:43;;;;;;;2.80;2.30;;;23.10;83.20;;;;;;5046687;28;20180;-81
2023/08/30 12:17:11;;;;;;;4.20;2.20;;;23.00;83.50;;;;;;5047638;28;20176;-81
2023/08/30 12:19:36;;;;;;;2.43;2.23;;;23.00;83.90;;;;;;5030610;28;20380;-80
2023/08/30 12:22:08;;;;;;;2.73;2.27;;;23.00;84.00;;;;;;5028378;28;20593;-80
2023/08/30 12:24:45;;;;;;;2.30;2.10;;;22.90;84.30;;;;;;5046230;28;20398;-81
2023/08/30 12:27:11;;;;;;;2.40;2.20;;;22.90;84.60;;;;;;5033607;28;20176;-81
2023/08/30 12:29:47;;;;;;;2.17;1.97;;;22.90;84.90;;;;;;5032810;28;20175;-81
2023/08/30 12:32:13;;;;;;;3.30;2.00;;;22.80;85.00;;;;;;5047413;28;20242;-81
2023/08/30 12:34:39;;;;;;;2.43;2.17;;;22.80;85.20;;;;;;5031079;28;20173;-81
2023/08/30 12:37:05;;;;;;;2.70;2.10;;;22.70;85.30;;;;;;5028896;28;20439;-81
2023/08/30 12:39:31;;;;;;;2.67;2.00;;;22.70;85.50;;;;;;5029521;28;20694;-80
2023/08/30 12:41:57;;;;;;;3.63;2.20;;;22.70;85.70;;;;;;5030448;28;20176;-80
2023/08/30 12:44:22;;;;;;;2.63;1.90;;;22.70;85.80;;;;;;5027814;28;20211;-81
2023/08/30 12:46:49;;;;;;;2.50;2.00;;;22.70;85.90;;;;;;5026473;28;20425;-81
2023/08/30 12:49:14;;;;;;;2.83;2.33;;;22.70;86.00;;;;;;5044030;28;20168;-81
2023/08/30 12:51:40;;;;;;;2.37;1.93;;;22.80;85.80;;;;;;5042046;28;20175;-81
2023/08/30 12:54:06;;;;;;;3.67;2.00;;;22.90;85.50;;;;;;5025701;28;20367;-81
2023/08/30 12:56:31;;;;;;;3.10;2.17;;;22.90;85.20;;;;;;5026814;28;20172;-81
2023/08/30 12:58:57;;;;;;;2.27;2.07;;;22.90;85.10;;;;;;5027311;28;20172;-81
2023/08/30 13:01:24;;;;;;;2.57;2.00;;;22.90;85.00;;;;;;5029279;28;20282;-81